createdAt,value
2023-01-09T00:03:29.655Z,49.35
2023-01-09T00:07:01.849Z,47.87
2023-01-09T00:10:33.743Z,51.97
2023-01-09T00:14:05.897Z,54.42
2023-01-09T00:17:37.977Z,54.23
2023-01-09T00:21:11.730Z,51.67
2023-01-09T00:24:43.428Z,56.50
2023-01-09T00:28:15.492Z,55.60
2023-01-09T00:31:47.737Z,55.50
2023-01-09T00:35:19.963Z,59.00
2023-01-09T00:38:52.276Z,54.45
2023-01-09T00:42:28.479Z,57.93
2023-01-09T00:46:01.902Z,57.33
2023-01-09T00:49:36.886Z,48.13
2023-01-09T00:53:17.250Z,50.37
2023-01-09T00:56:50.238Z,58.80
2023-01-09T01:00:22.050Z,54.90
2023-01-09T01:03:54.164Z,62.10
2023-01-09T01:07:42.899Z,57.28
2023-01-09T01:11:15.074Z,54.13
2023-01-09T01:14:47.076Z,52.17
2023-01-09T01:18:19.156Z,53.27
2023-01-09T01:21:51.079Z,50.55
2023-01-09T01:25:23.541Z,54.20
2023-01-09T01:28:55.263Z,56.40
2023-01-09T01:32:27.647Z,59.40
2023-01-09T01:36:09.256Z,54.03
2023-01-09T01:39:41.741Z,48.27
2023-01-09T01:43:13.750Z,53.40
2023-01-09T01:46:45.832Z,56.00
2023-01-09T01:50:35.515Z,53.75
2023-01-09T01:54:12.357Z,52.27
2023-01-09T01:57:48.330Z,58.90
2023-01-09T02:01:21.254Z,56.97
2023-01-09T02:04:55.987Z,54.80
2023-01-09T02:08:28.030Z,45.42
2023-01-09T02:12:00.962Z,46.10
2023-01-09T02:15:48.520Z,53.83
2023-01-09T02:20:04.914Z,52.30
2023-01-09T02:24:10.413Z,49.22
2023-01-09T02:28:29.470Z,46.85
2023-01-09T02:32:17.917Z,51.20
2023-01-09T02:36:05.083Z,41.92
2023-01-09T02:40:01.831Z,52.53
2023-01-09T02:43:34.312Z,48.27
2023-01-09T02:47:07.882Z,49.33
2023-01-09T02:50:48.250Z,49.15
2023-01-09T02:54:23.456Z,55.90
2023-01-09T02:58:10.141Z,39.95
2023-01-09T03:01:52.227Z,49.42
2023-01-09T03:05:37.404Z,48.92
2023-01-09T03:09:17.519Z,48.43
2023-01-09T03:12:53.205Z,50.58
2023-01-09T03:16:32.033Z,51.35
2023-01-09T03:20:07.303Z,48.97
2023-01-09T03:23:56.761Z,47.78
2023-01-09T03:27:28.518Z,58.65
2023-01-09T03:31:00.514Z,52.80
2023-01-09T03:34:32.332Z,47.42
2023-01-09T03:38:06.547Z,48.97
2023-01-09T03:41:39.014Z,45.85
2023-01-09T03:45:11.553Z,52.63
2023-01-09T03:48:43.708Z,47.58
2023-01-09T03:52:16.152Z,43.00
2023-01-09T03:55:50.089Z,44.13
2023-01-09T03:59:22.098Z,44.97
2023-01-09T04:02:53.812Z,44.35
2023-01-09T04:06:26.113Z,42.20
2023-01-09T04:09:58.007Z,41.67
2023-01-09T04:13:30.412Z,37.00
2023-01-09T04:17:02.361Z,36.65
2023-01-09T04:20:34.973Z,38.60
2023-01-09T04:24:07.119Z,38.22
2023-01-09T04:27:40.257Z,41.00
2023-01-09T04:31:12.192Z,40.00
2023-01-09T04:34:44.229Z,42.85
2023-01-09T04:38:15.971Z,41.47
2023-01-09T04:41:51.389Z,37.23
2023-01-09T04:45:23.211Z,38.78
2023-01-09T04:48:55.599Z,43.13
2023-01-09T04:52:28.056Z,42.00
2023-01-09T04:56:00.465Z,37.57
2023-01-09T04:59:32.650Z,38.08
2023-01-09T05:03:04.687Z,42.65
2023-01-09T05:06:36.696Z,34.97
2023-01-09T05:10:10.401Z,40.85
2023-01-09T05:13:42.600Z,41.15
2023-01-09T05:17:14.840Z,50.37
2023-01-09T05:20:46.938Z,42.03
2023-01-09T05:24:19.277Z,43.28
2023-01-09T05:27:51.008Z,40.55
2023-01-09T05:31:24.564Z,46.90
2023-01-09T05:34:56.398Z,42.35
2023-01-09T05:38:28.799Z,42.88
2023-01-09T05:42:00.846Z,39.73
2023-01-09T05:45:33.915Z,45.97
2023-01-09T05:49:06.127Z,40.72
2023-01-09T05:52:38.469Z,41.27
2023-01-09T05:56:11.803Z,44.40
2023-01-09T05:59:44.119Z,44.90
2023-01-09T06:03:15.904Z,41.58
2023-01-09T06:06:47.896Z,44.07
2023-01-09T06:10:19.752Z,43.42
2023-01-09T06:13:51.730Z,47.50
2023-01-09T06:17:23.415Z,42.80
2023-01-09T06:20:56.059Z,40.90
2023-01-09T06:24:28.493Z,44.45
2023-01-09T06:28:00.790Z,45.57
2023-01-09T06:31:32.599Z,53.85
2023-01-09T06:35:05.343Z,49.78
2023-01-09T06:38:37.085Z,44.15
2023-01-09T06:42:09.206Z,50.93
2023-01-09T06:45:43.604Z,48.22
2023-01-09T06:49:16.878Z,47.00
2023-01-09T06:52:48.588Z,45.03
2023-01-09T06:56:20.607Z,44.00
2023-01-09T06:59:53.028Z,51.13
2023-01-09T07:03:24.981Z,46.87
2023-01-09T07:06:56.815Z,49.95
2023-01-09T07:10:29.068Z,42.03
2023-01-09T07:14:00.790Z,51.67
2023-01-09T07:17:33.499Z,51.53
2023-01-09T07:21:08.739Z,48.75
2023-01-09T07:24:40.811Z,58.10
2023-01-09T07:28:12.773Z,50.70
2023-01-09T07:31:44.763Z,54.78
2023-01-09T07:35:16.651Z,60.42
2023-01-09T07:38:48.863Z,51.40
2023-01-09T07:42:20.841Z,58.42
2023-01-09T07:45:53.095Z,50.05
2023-01-09T07:49:26.767Z,56.83
2023-01-09T07:52:59.066Z,49.57
2023-01-09T07:56:30.943Z,58.38
2023-01-09T08:00:06.774Z,58.55
2023-01-09T08:03:38.918Z,61.90
2023-01-09T08:07:11.063Z,53.90
2023-01-09T08:10:43.850Z,52.55
2023-01-09T08:14:15.522Z,58.23
2023-01-09T08:17:47.610Z,58.50
2023-01-09T08:21:21.416Z,55.88
2023-01-09T08:24:53.437Z,70.13
2023-01-09T08:28:25.396Z,57.87
2023-01-09T08:31:57.544Z,65.25
2023-01-09T08:35:29.253Z,54.75
2023-01-09T08:39:01.669Z,59.03
2023-01-09T08:42:52.291Z,56.72
2023-01-09T08:46:43.564Z,62.47
2023-01-09T08:50:15.438Z,57.27
2023-01-09T08:53:48.563Z,62.33
2023-01-09T08:57:20.347Z,63.88
2023-01-09T09:00:52.396Z,54.33
2023-01-09T09:04:24.416Z,64.30
2023-01-09T09:07:56.924Z,58.85
2023-01-09T09:11:30.559Z,62.05
2023-01-09T09:15:16.633Z,59.20
2023-01-09T09:18:48.345Z,49.38
2023-01-09T09:22:20.553Z,55.42
2023-01-09T09:25:52.518Z,58.03
2023-01-09T09:29:24.953Z,56.53
2023-01-09T09:32:56.734Z,58.17
2023-01-09T09:36:29.963Z,52.58
2023-01-09T09:40:13.287Z,64.40
2023-01-09T09:44:19.904Z,73.43
2023-01-09T09:48:26.737Z,56.53
2023-01-09T09:52:01.948Z,48.63
2023-01-09T09:55:36.374Z,59.33
2023-01-09T09:59:17.692Z,54.33
2023-01-09T10:02:55.967Z,59.53
2023-01-09T10:06:37.421Z,60.97
2023-01-09T10:10:27.092Z,59.08
2023-01-09T10:14:08.220Z,59.58
2023-01-09T10:17:48.385Z,72.47
2023-01-09T10:21:40.568Z,60.75
2023-01-09T10:25:28.732Z,64.10
2023-01-09T10:29:36.588Z,63.33
2023-01-09T10:33:27.036Z,67.30
2023-01-09T10:37:05.643Z,73.55
2023-01-09T10:40:43.714Z,65.90
2023-01-09T10:44:27.275Z,67.47
2023-01-09T10:48:21.776Z,71.30
2023-01-09T10:52:16.713Z,70.47
2023-01-09T10:55:54.776Z,69.17
2023-01-09T10:59:26.994Z,70.38
2023-01-09T11:02:59.281Z,73.65
2023-01-09T11:06:46.545Z,70.93
2023-01-09T11:10:19.564Z,66.93
2023-01-09T11:14:04.395Z,66.15
2023-01-09T11:17:36.459Z,75.40
2023-01-09T11:21:33.003Z,74.78
2023-01-09T11:25:12.551Z,70.03
2023-01-09T11:28:44.671Z,74.20
2023-01-09T11:32:23.402Z,64.13
2023-01-09T11:35:56.762Z,69.85
2023-01-09T11:39:32.517Z,71.85
2023-01-09T11:43:13.143Z,73.07
2023-01-09T11:46:46.619Z,64.97
2023-01-09T11:50:27.714Z,67.97
2023-01-09T11:54:31.404Z,69.03
2023-01-09T11:58:03.926Z,70.40
2023-01-09T12:02:17.952Z,72.25
2023-01-09T12:05:59.424Z,62.90
2023-01-09T12:10:01.506Z,65.07
2023-01-09T12:14:11.002Z,67.70
2023-01-09T12:18:23.703Z,62.72
2023-01-09T12:22:20.506Z,65.13
2023-01-09T12:26:01.807Z,65.63
2023-01-09T12:30:00.931Z,56.55
2023-01-09T12:34:07.019Z,65.80
2023-01-09T12:37:47.714Z,60.60
2023-01-09T12:41:38.554Z,65.65
2023-01-09T12:45:19.444Z,56.38
2023-01-09T12:49:15.467Z,54.93
2023-01-09T12:53:03.006Z,62.42
2023-01-09T12:56:43.621Z,63.38
2023-01-09T13:00:24.197Z,57.67
2023-01-09T13:04:17.354Z,65.57
2023-01-09T13:08:16.040Z,52.67
2023-01-09T13:12:00.961Z,56.97
2023-01-09T13:19:39.964Z,60.67
2023-01-09T13:23:30.950Z,66.93
2023-01-09T13:27:11.258Z,63.03
2023-01-09T13:30:58.812Z,60.63
2023-01-09T13:34:35.509Z,60.63
2023-01-09T13:38:18.055Z,54.77
2023-01-09T13:42:19.599Z,56.38
2023-01-09T13:45:53.062Z,77.30
2023-01-09T13:49:40.398Z,81.87
2023-01-09T13:53:17.987Z,57.28
2023-01-09T13:57:19.676Z,63.85
2023-01-09T14:00:55.802Z,57.53
2023-01-09T14:04:40.720Z,71.60
2023-01-09T14:08:18.579Z,62.10
2023-01-09T14:12:03.594Z,52.38
2023-01-09T14:15:41.375Z,45.27
2023-01-09T14:19:16.595Z,54.90
2023-01-09T14:23:05.247Z,46.15
2023-01-09T14:26:46.689Z,51.00
2023-01-09T14:30:28.851Z,54.38
2023-01-09T14:34:36.169Z,43.80
2023-01-09T14:38:28.061Z,53.97
2023-01-09T14:42:09.150Z,49.57
2023-01-09T14:45:49.647Z,51.22
2023-01-09T14:49:27.564Z,47.72
2023-01-09T14:53:14.389Z,50.73
2023-01-09T14:56:49.686Z,57.13
2023-01-09T15:00:23.280Z,47.03
2023-01-09T15:04:01.986Z,49.27
2023-01-09T15:07:40.995Z,47.97
2023-01-09T15:11:14.359Z,56.63
2023-01-09T15:14:51.537Z,55.15
2023-01-09T15:18:26.156Z,52.20
2023-01-09T15:22:06.581Z,48.58
2023-01-09T15:25:40.809Z,56.88
2023-01-09T15:29:17.927Z,49.70
2023-01-09T15:32:52.255Z,52.67
2023-01-09T15:36:26.317Z,50.88
2023-01-09T15:40:00.631Z,51.07
2023-01-09T15:43:34.068Z,54.80
2023-01-09T15:47:11.050Z,43.83
2023-01-09T15:50:44.387Z,50.78
2023-01-09T15:54:23.845Z,46.97
2023-01-09T15:57:55.663Z,49.92
2023-01-09T16:01:33.944Z,46.65
2023-01-09T16:05:20.183Z,44.87
2023-01-09T16:08:56.318Z,41.60
2023-01-09T16:12:29.100Z,39.95
2023-01-09T16:16:02.311Z,41.40
2023-01-09T16:20:11.259Z,48.42
2023-01-09T16:23:52.867Z,38.97
2023-01-09T16:27:27.317Z,39.38
2023-01-09T16:31:09.993Z,32.23
2023-01-09T16:34:42.447Z,32.22
2023-01-09T16:38:15.478Z,38.53
2023-01-09T16:42:06.279Z,33.93
2023-01-09T16:45:42.432Z,35.65
2023-01-09T16:49:19.217Z,32.80
2023-01-09T16:52:52.536Z,29.13
2023-01-09T16:56:27.662Z,29.48
2023-01-09T17:00:00.602Z,40.13
2023-01-09T17:03:32.863Z,40.05
2023-01-09T17:07:05.060Z,38.10
2023-01-09T17:10:37.012Z,37.65
2023-01-09T17:14:12.275Z,34.22
2023-01-09T17:17:44.236Z,28.07
2023-01-09T17:21:20.104Z,33.72
2023-01-09T17:25:10.362Z,40.83
2023-01-09T17:28:49.256Z,32.33
2023-01-09T17:32:20.981Z,40.15
2023-01-09T17:35:53.705Z,35.90
2023-01-09T17:39:25.401Z,44.53
2023-01-09T17:42:57.620Z,34.57
2023-01-09T17:46:32.485Z,30.77
2023-01-09T17:50:05.870Z,30.88
2023-01-09T17:53:37.678Z,31.17
2023-01-09T17:57:15.840Z,28.80
2023-01-09T18:00:47.913Z,26.55
2023-01-09T18:04:20.196Z,26.43
2023-01-09T18:07:52.164Z,27.25
2023-01-09T18:11:24.433Z,27.30
2023-01-09T18:14:56.291Z,26.63
2023-01-09T18:18:29.459Z,26.53
2023-01-09T18:22:01.221Z,23.08
2023-01-09T18:25:33.343Z,26.70
2023-01-09T18:29:05.548Z,24.80
2023-01-09T18:32:37.712Z,20.77
2023-01-09T18:36:10.072Z,25.42
2023-01-09T18:39:42.121Z,26.97
2023-01-09T18:43:14.441Z,22.48
2023-01-09T18:46:47.089Z,17.38
2023-01-09T18:50:19.219Z,16.80
2023-01-09T18:53:52.455Z,29.90
2023-01-09T18:57:24.360Z,25.67
2023-01-09T19:00:56.706Z,28.42
2023-01-09T19:04:28.683Z,29.23
2023-01-09T19:08:00.882Z,26.77
2023-01-09T19:11:32.966Z,28.45
2023-01-09T19:15:11.076Z,23.87
2023-01-09T19:18:43.531Z,22.25
2023-01-09T19:22:15.649Z,21.48
2023-01-09T19:25:48.169Z,25.02
2023-01-09T19:29:20.178Z,22.87
2023-01-09T19:32:52.249Z,21.58
2023-01-09T19:36:25.237Z,24.65
2023-01-09T19:39:56.947Z,16.73
2023-01-09T19:43:29.006Z,22.05
2023-01-09T19:47:00.871Z,22.50
2023-01-09T19:50:33.015Z,20.83
2023-01-09T19:57:35.937Z,21.73
2023-01-09T20:01:11.765Z,21.30
2023-01-09T20:04:43.903Z,20.73
2023-01-09T20:08:17.432Z,18.52
2023-01-09T20:11:49.342Z,23.05
2023-01-09T20:15:22.739Z,22.33
2023-01-09T20:18:57.708Z,18.88
2023-01-09T20:22:30.242Z,21.20
2023-01-09T20:26:02.399Z,21.00
2023-01-09T20:29:36.156Z,23.60
2023-01-09T20:33:08.580Z,26.40
2023-01-09T20:36:40.534Z,31.80
2023-01-09T20:40:12.740Z,29.67
2023-01-09T20:43:44.571Z,39.03
2023-01-09T20:47:16.688Z,33.42
2023-01-09T20:50:48.424Z,33.97
2023-01-09T20:54:21.707Z,33.42
2023-01-09T20:57:53.504Z,33.38
2023-01-09T21:01:26.643Z,34.90
2023-01-09T21:04:58.565Z,32.75
2023-01-09T21:08:30.698Z,33.45
2023-01-09T21:12:02.439Z,38.80
2023-01-09T21:15:36.991Z,40.30
2023-01-09T21:19:09.382Z,34.95
2023-01-09T21:22:47.016Z,34.75
2023-01-09T21:26:22.634Z,28.17
2023-01-09T21:29:54.872Z,33.53
2023-01-09T21:33:26.851Z,39.22
2023-01-09T21:36:59.131Z,36.10
2023-01-09T21:40:30.902Z,47.33
2023-01-09T21:44:21.550Z,43.63
2023-01-09T21:47:53.344Z,37.80
2023-01-09T21:51:26.152Z,34.73
2023-01-09T21:54:58.051Z,32.28
2023-01-09T21:58:30.064Z,34.80
2023-01-09T22:02:02.132Z,36.50
2023-01-09T22:05:37.251Z,34.78
2023-01-09T22:09:10.150Z,38.33
2023-01-09T22:13:02.440Z,34.40
2023-01-09T22:16:34.280Z,36.75
2023-01-09T22:20:07.039Z,34.10
2023-01-09T22:23:38.951Z,36.00
2023-01-09T22:27:11.399Z,32.83
2023-01-09T22:30:43.105Z,34.53
2023-01-09T22:34:17.085Z,29.20
2023-01-09T22:37:49.282Z,25.63
2023-01-09T22:41:21.877Z,30.83
2023-01-09T22:44:54.093Z,35.03
2023-01-09T22:48:28.878Z,31.60
2023-01-09T22:52:00.779Z,32.72
2023-01-09T22:55:32.998Z,33.15
2023-01-09T22:59:04.963Z,29.35
2023-01-09T23:02:37.156Z,35.57
2023-01-09T23:06:12.728Z,34.85
2023-01-09T23:09:44.935Z,37.28
2023-01-09T23:13:16.845Z,40.17
2023-01-09T23:16:49.175Z,38.63
2023-01-09T23:20:21.126Z,40.00
2023-01-09T23:23:53.324Z,42.33
2023-01-09T23:27:25.181Z,45.38
2023-01-09T23:30:57.711Z,47.78
2023-01-09T23:34:29.760Z,41.63
2023-01-09T23:38:02.261Z,43.83
2023-01-09T23:41:53.600Z,40.92
2023-01-09T23:45:25.906Z,46.20
2023-01-09T23:48:57.898Z,42.23
2023-01-09T23:52:29.965Z,47.58
2023-01-09T23:56:03.099Z,40.80
2023-01-09T23:59:35.133Z,51.23
